MDT,Max TemperatureF,Mean TemperatureF,Min TemperatureF,Max Dew PointF,MeanDew PointF,Min DewpointF,Max Humidity, Mean Humidity, Min Humidity, Max Sea Level PressureIn, Mean Sea Level PressureIn, Min Sea Level PressureIn, Max VisibilityMiles, Mean VisibilityMiles, Min VisibilityMiles, Max Wind SpeedMPH, Mean Wind SpeedMPH, Max Gust SpeedMPH,PrecipitationIn, CloudCover, Events, WindDirDegrees
2012-10-1,74,60,46,42,36,33,60,43,26,30.22,30.10,29.99,10,10,10,31,12,38,0.00,4,,22
2012-10-2,83,61,39,38,31,24,85,49,12,30.20,29.91,29.77,10,10,10,12,4,17,0.00,0,,38
2012-10-3,88,66,43,34,26,17,58,33,7,30.23,29.84,29.65,10,10,2,51,14,63,0.00,1,Rain,315
2012-10-4,56,46,35,30,25,23,64,46,27,30.32,30.23,30.15,10,10,10,18,7,21,T,1,,111
2012-10-5,52,43,33,35,30,25,100,73,46,30.29,30.20,30.12,10,9,3,18,10,22,0.01,5,,95
2012-10-6,44,39,34,36,33,28,100,82,64,30.33,30.25,30.22,10,7,2,15,6,18,0.05,8,Rain,94
2012-10-7,55,43,31,31,27,20,89,58,26,30.29,30.17,30.03,10,10,10,13,3,18,0.00,5,,110
2012-10-8,70,46,21,25,17,7,84,48,11,30.09,29.93,29.79,10,10,6,18,6,22,0.00,0,,35
2012-10-9,66,53,40,34,25,5,65,40,15,30.19,29.97,29.78,10,10,3,26,12,36,0.00,1,,152
2012-10-10,66,52,37,36,34,31,76,54,31,30.21,30.06,29.90,10,10,2,13,6,13,0.00,2,,150
2012-10-11,84,61,37,35,30,23,76,44,11,30.29,30.00,29.87,10,10,8,29,9,37,0.00,0,,209
2012-10-12,63,49,35,49,38,28,93,65,36,30.28,30.03,29.87,10,9,2,24,5,31,0.07,2,Rain-Thunderstorm,98
2012-10-13,63,54,44,41,33,27,82,54,25,30.11,29.88,29.78,10,10,10,30,14,38,T,3,,318
2012-10-14,71,54,37,37,33,30,85,55,25,30.26,30.15,30.04,10,10,10,15,6,18,0.00,1,,195
2012-10-15,82,58,34,32,26,18,82,46,9,30.09,29.90,29.74,10,10,10,13,5,16,0.00,0,,249
2012-10-16,81,60,39,27,23,18,49,30,11,29.91,29.64,29.42,10,10,2,30,9,37,0.00,0,,217
2012-10-17,72,52,32,39,13,-6,51,28,5,29.92,29.71,29.48,10,9,2,37,13,46,0.00,1,,2
2012-10-18,63,44,24,14,11,3,46,30,14,30.12,30.06,29.94,10,10,8,13,5,15,0.00,0,,113
2012-10-19,78,52,25,20,15,8,47,29,10,30.09,29.92,29.73,10,10,10,21,6,23,0.00,0,,205
2012-10-20,83,58,32,22,13,4,52,29,5,29.84,29.69,29.58,10,10,10,17,6,22,0.00,0,,251
2012-10-21,81,62,42,30,16,10,46,27,8,29.77,29.67,29.60,10,10,10,16,7,24,0.00,0,,112
2012-10-22,72,52,32,34,30,23,61,44,26,29.88,29.76,29.68,10,10,10,16,6,21,0.00,0,,82
2012-10-23,84,60,36,31,21,15,70,39,8,29.80,29.67,29.58,10,10,9,28,9,33,0.00,0,,251
2012-10-24,63,50,36,38,33,16,65,42,19,29.87,29.70,29.54,10,10,9,45,17,54,T,2,Rain,64
2012-10-25,42,37,31,31,25,22,92,69,45,30.32,30.19,29.91,10,8,1,33,8,39,0.12,8,Snow,105
2012-10-26,43,35,27,31,28,23,100,73,45,30.50,30.36,30.25,10,8,2,16,6,18,0.05,6,Snow,94
2012-10-27,52,39,26,29,24,18,92,60,28,30.25,30.18,30.08,10,9,5,15,5,18,0.00,4,,145
2012-10-28,57,39,21,27,24,19,92,62,32,30.23,30.13,30.02,10,10,10,9,2,10,0.00,0,,351
2012-10-29,69,50,30,30,26,22,85,51,17,30.17,30.09,30.00,10,10,9,12,3,13,0.00,0,,79
2012-10-30,71,51,30,29,25,23,72,45,18,30.16,30.07,29.99,10,10,10,12,5,16,0.00,0,,230
2012-10-31,75,54,33,28,23,20,69,41,13,30.14,30.07,29.99,10,10,10,10,4,14,0.00,0,,290